sensor_id;sensor_type;location;lat;lon;timestamp;temperature;humidity
12504;DHT22;6316;48.118;-1.690;2023-08-07T00:00:30;15.40;99.90
12504;DHT22;6316;48.118;-1.690;2023-08-07T00:02:55;15.30;99.90
12504;DHT22;6316;48.118;-1.690;2023-08-07T00:05:21;15.30;99.90
12504;DHT22;6316;48.118;-1.690;2023-08-07T00:07:47;15.20;99.90
12504;DHT22;6316;48.118;-1.690;2023-08-07T00:10:12;15.20;99.90
12504;DHT22;6316;48.118;-1.690;2023-08-07T00:12:38;15.20;99.90
12504;DHT22;6316;48.118;-1.690;2023-08-07T00:15:05;15.20;99.90
12504;DHT22;6316;48.118;-1.690;2023-08-07T00:17:31;15.10;99.90
12504;DHT22;6316;48.118;-1.690;2023-08-07T00:19:56;15.10;99.90
12504;DHT22;6316;48.118;-1.690;2023-08-07T00:22:22;15.10;99.90
12504;DHT22;6316;48.118;-1.690;2023-08-07T00:24:48;15.00;99.90
12504;DHT22;6316;48.118;-1.690;2023-08-07T00:27:14;15.10;99.90
12504;DHT22;6316;48.118;-1.690;2023-08-07T00:29:40;15.00;99.90
12504;DHT22;6316;48.118;-1.690;2023-08-07T00:32:06;15.00;99.90
12504;DHT22;6316;48.118;-1.690;2023-08-07T00:34:32;15.00;99.90
12504;DHT22;6316;48.118;-1.690;2023-08-07T00:36:58;14.90;99.90
12504;DHT22;6316;48.118;-1.690;2023-08-07T00:39:24;14.90;99.90
12504;DHT22;6316;48.118;-1.690;2023-08-07T00:41:49;14.90;99.90
12504;DHT22;6316;48.118;-1.690;2023-08-07T00:44:15;14.90;99.90
12504;DHT22;6316;48.118;-1.690;2023-08-07T00:46:42;14.80;99.90
12504;DHT22;6316;48.118;-1.690;2023-08-07T00:49:09;14.80;99.90
12504;DHT22;6316;48.118;-1.690;2023-08-07T00:51:35;14.80;99.90
12504;DHT22;6316;48.118;-1.690;2023-08-07T00:54:03;14.70;99.90
12504;DHT22;6316;48.118;-1.690;2023-08-07T00:56:30;14.70;99.90
12504;DHT22;6316;48.118;-1.690;2023-08-07T00:59:00;14.70;99.90
12504;DHT22;6316;48.118;-1.690;2023-08-07T01:01:26;14.70;99.90
12504;DHT22;6316;48.118;-1.690;2023-08-07T01:03:51;14.60;99.90
12504;DHT22;6316;48.118;-1.690;2023-08-07T01:06:17;14.60;99.90
12504;DHT22;6316;48.118;-1.690;2023-08-07T01:08:43;14.60;99.90
12504;DHT22;6316;48.118;-1.690;2023-08-07T01:14:06;14.60;99.90
12504;DHT22;6316;48.118;-1.690;2023-08-07T01:19:22;14.50;99.90
12504;DHT22;6316;48.118;-1.690;2023-08-07T01:21:49;14.50;99.90
12504;DHT22;6316;48.118;-1.690;2023-08-07T01:24:15;14.50;99.90
12504;DHT22;6316;48.118;-1.690;2023-08-07T01:26:42;14.40;99.90
12504;DHT22;6316;48.118;-1.690;2023-08-07T01:29:22;14.40;99.90
12504;DHT22;6316;48.118;-1.690;2023-08-07T01:31:53;14.40;99.90
12504;DHT22;6316;48.118;-1.690;2023-08-07T01:34:22;14.40;99.90
12504;DHT22;6316;48.118;-1.690;2023-08-07T01:36:50;14.40;99.90
12504;DHT22;6316;48.118;-1.690;2023-08-07T01:39:18;14.30;99.90
12504;DHT22;6316;48.118;-1.690;2023-08-07T01:41:44;14.30;99.90
12504;DHT22;6316;48.118;-1.690;2023-08-07T01:44:10;14.30;99.90
12504;DHT22;6316;48.118;-1.690;2023-08-07T01:46:36;14.30;99.90
12504;DHT22;6316;48.118;-1.690;2023-08-07T01:49:01;14.20;99.90
12504;DHT22;6316;48.118;-1.690;2023-08-07T01:51:27;14.20;99.90
12504;DHT22;6316;48.118;-1.690;2023-08-07T01:53:53;14.20;99.90
12504;DHT22;6316;48.118;-1.690;2023-08-07T01:56:18;14.10;99.90
12504;DHT22;6316;48.118;-1.690;2023-08-07T01:58:44;14.10;99.90
12504;DHT22;6316;48.118;-1.690;2023-08-07T02:01:10;14.10;99.90
12504;DHT22;6316;48.118;-1.690;2023-08-07T02:03:35;14.10;99.90
12504;DHT22;6316;48.118;-1.690;2023-08-07T02:06:01;14.10;99.90
12504;DHT22;6316;48.118;-1.690;2023-08-07T02:08:27;14.00;99.90
12504;DHT22;6316;48.118;-1.690;2023-08-07T02:10:53;14.00;99.90
12504;DHT22;6316;48.118;-1.690;2023-08-07T02:13:19;14.00;99.90
12504;DHT22;6316;48.118;-1.690;2023-08-07T02:15:44;14.00;99.90
12504;DHT22;6316;48.118;-1.690;2023-08-07T02:18:10;14.00;99.90
12504;DHT22;6316;48.118;-1.690;2023-08-07T02:20:36;13.90;99.90
12504;DHT22;6316;48.118;-1.690;2023-08-07T02:23:01;13.90;99.90
12504;DHT22;6316;48.118;-1.690;2023-08-07T02:25:27;13.90;99.90
12504;DHT22;6316;48.118;-1.690;2023-08-07T02:27:52;13.90;99.90
12504;DHT22;6316;48.118;-1.690;2023-08-07T02:30:18;13.80;99.90
12504;DHT22;6316;48.118;-1.690;2023-08-07T02:32:44;13.80;99.90
12504;DHT22;6316;48.118;-1.690;2023-08-07T02:35:10;13.80;99.90
12504;DHT22;6316;48.118;-1.690;2023-08-07T02:37:36;13.80;99.90
12504;DHT22;6316;48.118;-1.690;2023-08-07T02:40:02;13.70;99.90
12504;DHT22;6316;48.118;-1.690;2023-08-07T02:42:28;13.80;99.90
12504;DHT22;6316;48.118;-1.690;2023-08-07T02:44:53;13.70;99.90
12504;DHT22;6316;48.118;-1.690;2023-08-07T02:47:19;13.70;99.90
12504;DHT22;6316;48.118;-1.690;2023-08-07T02:49:44;13.70;99.90
12504;DHT22;6316;48.118;-1.690;2023-08-07T02:52:10;13.70;99.90
12504;DHT22;6316;48.118;-1.690;2023-08-07T02:54:36;13.70;99.90
12504;DHT22;6316;48.118;-1.690;2023-08-07T02:57:01;13.60;99.90
12504;DHT22;6316;48.118;-1.690;2023-08-07T02:59:27;13.60;99.90
12504;DHT22;6316;48.118;-1.690;2023-08-07T03:01:56;13.60;99.90
12504;DHT22;6316;48.118;-1.690;2023-08-07T03:04:22;13.60;99.90
12504;DHT22;6316;48.118;-1.690;2023-08-07T03:06:47;13.60;99.90
12504;DHT22;6316;48.118;-1.690;2023-08-07T03:09:13;13.60;99.90
12504;DHT22;6316;48.118;-1.690;2023-08-07T03:11:38;13.60;99.90
12504;DHT22;6316;48.118;-1.690;2023-08-07T03:14:04;13.50;99.90
12504;DHT22;6316;48.118;-1.690;2023-08-07T03:16:30;13.50;99.90
12504;DHT22;6316;48.118;-1.690;2023-08-07T03:18:55;13.50;99.90
12504;DHT22;6316;48.118;-1.690;2023-08-07T03:21:21;13.50;99.90
12504;DHT22;6316;48.118;-1.690;2023-08-07T03:23:47;13.50;99.90
12504;DHT22;6316;48.118;-1.690;2023-08-07T03:26:13;13.50;99.90
12504;DHT22;6316;48.118;-1.690;2023-08-07T03:28:39;13.40;99.90
12504;DHT22;6316;48.118;-1.690;2023-08-07T03:31:05;13.40;99.90
12504;DHT22;6316;48.118;-1.690;2023-08-07T03:33:31;13.40;99.90
12504;DHT22;6316;48.118;-1.690;2023-08-07T03:35:57;13.40;99.90
12504;DHT22;6316;48.118;-1.690;2023-08-07T03:38:22;13.40;99.90
12504;DHT22;6316;48.118;-1.690;2023-08-07T03:40:48;13.40;99.90
12504;DHT22;6316;48.118;-1.690;2023-08-07T03:43:13;13.30;99.90
12504;DHT22;6316;48.118;-1.690;2023-08-07T03:45:39;13.30;99.90
12504;DHT22;6316;48.118;-1.690;2023-08-07T03:48:05;13.30;99.90
12504;DHT22;6316;48.118;-1.690;2023-08-07T03:50:31;13.30;99.90
12504;DHT22;6316;48.118;-1.690;2023-08-07T03:53:00;13.30;99.90
12504;DHT22;6316;48.118;-1.690;2023-08-07T03:55:26;13.20;99.90
12504;DHT22;6316;48.118;-1.690;2023-08-07T03:57:52;13.20;99.90
12504;DHT22;6316;48.118;-1.690;2023-08-07T04:00:18;13.20;99.90
12504;DHT22;6316;48.118;-1.690;2023-08-07T04:02:44;13.20;99.90
12504;DHT22;6316;48.118;-1.690;2023-08-07T04:05:10;13.20;99.90
12504;DHT22;6316;48.118;-1.690;2023-08-07T04:07:36;13.20;99.90
12504;DHT22;6316;48.118;-1.690;2023-08-07T04:10:01;13.20;99.90
12504;DHT22;6316;48.118;-1.690;2023-08-07T04:12:27;13.10;99.90
12504;DHT22;6316;48.118;-1.690;2023-08-07T04:14:53;13.10;99.90
12504;DHT22;6316;48.118;-1.690;2023-08-07T04:17:19;13.10;99.90
12504;DHT22;6316;48.118;-1.690;2023-08-07T04:19:44;13.10;99.90
12504;DHT22;6316;48.118;-1.690;2023-08-07T04:22:10;13.10;99.90
12504;DHT22;6316;48.118;-1.690;2023-08-07T04:24:35;13.00;99.90
12504;DHT22;6316;48.118;-1.690;2023-08-07T04:27:01;13.00;99.90
12504;DHT22;6316;48.118;-1.690;2023-08-07T04:29:27;13.10;99.90
12504;DHT22;6316;48.118;-1.690;2023-08-07T04:31:52;13.00;99.90
12504;DHT22;6316;48.118;-1.690;2023-08-07T04:34:18;13.00;99.90
12504;DHT22;6316;48.118;-1.690;2023-08-07T04:36:44;13.00;99.90
12504;DHT22;6316;48.118;-1.690;2023-08-07T04:39:10;13.00;99.90
12504;DHT22;6316;48.118;-1.690;2023-08-07T04:41:36;13.00;99.90
12504;DHT22;6316;48.118;-1.690;2023-08-07T04:44:02;12.90;99.90
12504;DHT22;6316;48.118;-1.690;2023-08-07T04:46:28;12.90;99.90
12504;DHT22;6316;48.118;-1.690;2023-08-07T04:48:54;12.90;99.90
12504;DHT22;6316;48.118;-1.690;2023-08-07T04:51:19;12.90;99.90
12504;DHT22;6316;48.118;-1.690;2023-08-07T04:53:45;12.90;99.90
12504;DHT22;6316;48.118;-1.690;2023-08-07T04:56:11;12.90;99.90
12504;DHT22;6316;48.118;-1.690;2023-08-07T04:58:37;12.90;99.90
12504;DHT22;6316;48.118;-1.690;2023-08-07T05:01:02;12.90;99.90
12504;DHT22;6316;48.118;-1.690;2023-08-07T05:03:28;12.90;99.90
12504;DHT22;6316;48.118;-1.690;2023-08-07T05:05:59;12.90;99.90
12504;DHT22;6316;48.118;-1.690;2023-08-07T05:08:25;12.90;99.90
12504;DHT22;6316;48.118;-1.690;2023-08-07T05:10:51;12.90;99.90
12504;DHT22;6316;48.118;-1.690;2023-08-07T05:13:17;12.90;99.90
12504;DHT22;6316;48.118;-1.690;2023-08-07T05:15:42;12.90;99.90
12504;DHT22;6316;48.118;-1.690;2023-08-07T05:18:08;12.90;99.90
12504;DHT22;6316;48.118;-1.690;2023-08-07T05:20:33;12.90;99.90
12504;DHT22;6316;48.118;-1.690;2023-08-07T05:22:59;13.00;99.90
12504;DHT22;6316;48.118;-1.690;2023-08-07T05:25:25;13.00;99.90
12504;DHT22;6316;48.118;-1.690;2023-08-07T05:27:51;13.00;99.90
12504;DHT22;6316;48.118;-1.690;2023-08-07T05:30:17;13.00;99.90
12504;DHT22;6316;48.118;-1.690;2023-08-07T05:32:42;13.10;99.90
12504;DHT22;6316;48.118;-1.690;2023-08-07T05:35:08;13.20;99.90
12504;DHT22;6316;48.118;-1.690;2023-08-07T05:37:34;13.30;99.90
12504;DHT22;6316;48.118;-1.690;2023-08-07T05:40:01;13.40;99.90
12504;DHT22;6316;48.118;-1.690;2023-08-07T05:42:26;13.50;99.90
12504;DHT22;6316;48.118;-1.690;2023-08-07T05:44:52;13.60;99.90
12504;DHT22;6316;48.118;-1.690;2023-08-07T05:47:18;13.70;99.90
12504;DHT22;6316;48.118;-1.690;2023-08-07T05:49:44;13.70;99.90
12504;DHT22;6316;48.118;-1.690;2023-08-07T05:52:09;13.80;99.90
12504;DHT22;6316;48.118;-1.690;2023-08-07T05:54:35;13.90;99.90
12504;DHT22;6316;48.118;-1.690;2023-08-07T05:57:01;14.00;99.90
12504;DHT22;6316;48.118;-1.690;2023-08-07T05:59:26;14.10;99.90
12504;DHT22;6316;48.118;-1.690;2023-08-07T06:01:53;14.20;99.90
12504;DHT22;6316;48.118;-1.690;2023-08-07T06:04:19;14.30;99.90
12504;DHT22;6316;48.118;-1.690;2023-08-07T06:06:44;14.30;99.90
12504;DHT22;6316;48.118;-1.690;2023-08-07T06:09:11;14.40;99.90
12504;DHT22;6316;48.118;-1.690;2023-08-07T06:11:37;14.50;99.90
12504;DHT22;6316;48.118;-1.690;2023-08-07T06:14:03;14.60;99.90
12504;DHT22;6316;48.118;-1.690;2023-08-07T06:16:29;14.70;99.90
12504;DHT22;6316;48.118;-1.690;2023-08-07T06:18:55;14.80;99.90
12504;DHT22;6316;48.118;-1.690;2023-08-07T06:21:21;14.90;99.90
12504;DHT22;6316;48.118;-1.690;2023-08-07T06:23:47;15.00;99.90
12504;DHT22;6316;48.118;-1.690;2023-08-07T06:26:13;15.10;99.90
12504;DHT22;6316;48.118;-1.690;2023-08-07T06:28:38;15.20;99.90
12504;DHT22;6316;48.118;-1.690;2023-08-07T06:31:07;15.30;99.90
12504;DHT22;6316;48.118;-1.690;2023-08-07T06:33:33;15.30;99.90
12504;DHT22;6316;48.118;-1.690;2023-08-07T06:35:59;15.40;99.90
12504;DHT22;6316;48.118;-1.690;2023-08-07T06:38:25;15.50;99.90
12504;DHT22;6316;48.118;-1.690;2023-08-07T06:40:50;15.60;99.90
12504;DHT22;6316;48.118;-1.690;2023-08-07T06:43:16;15.80;99.90
12504;DHT22;6316;48.118;-1.690;2023-08-07T06:45:51;15.90;99.90
12504;DHT22;6316;48.118;-1.690;2023-08-07T06:48:17;16.20;99.90
12504;DHT22;6316;48.118;-1.690;2023-08-07T06:50:43;16.40;99.90
12504;DHT22;6316;48.118;-1.690;2023-08-07T06:53:09;16.60;99.90
12504;DHT22;6316;48.118;-1.690;2023-08-07T06:55:35;16.90;99.90
12504;DHT22;6316;48.118;-1.690;2023-08-07T06:58:01;17.60;99.90
12504;DHT22;6316;48.118;-1.690;2023-08-07T07:00:26;18.50;99.90
12504;DHT22;6316;48.118;-1.690;2023-08-07T07:02:52;19.60;99.90
12504;DHT22;6316;48.118;-1.690;2023-08-07T07:05:18;20.80;99.90
12504;DHT22;6316;48.118;-1.690;2023-08-07T07:07:44;22.30;99.90
12504;DHT22;6316;48.118;-1.690;2023-08-07T07:10:10;23.80;99.90
12504;DHT22;6316;48.118;-1.690;2023-08-07T07:12:36;25.30;99.90
12504;DHT22;6316;48.118;-1.690;2023-08-07T07:15:02;26.70;99.90
12504;DHT22;6316;48.118;-1.690;2023-08-07T07:17:28;28.00;99.90
12504;DHT22;6316;48.118;-1.690;2023-08-07T07:19:53;29.00;99.90
12504;DHT22;6316;48.118;-1.690;2023-08-07T07:22:19;30.00;99.90
12504;DHT22;6316;48.118;-1.690;2023-08-07T07:24:45;30.80;99.90
12504;DHT22;6316;48.118;-1.690;2023-08-07T07:27:10;31.50;99.90
12504;DHT22;6316;48.118;-1.690;2023-08-07T07:29:36;32.20;99.90
12504;DHT22;6316;48.118;-1.690;2023-08-07T07:32:02;32.70;99.90
12504;DHT22;6316;48.118;-1.690;2023-08-07T07:34:28;33.10;99.90
12504;DHT22;6316;48.118;-1.690;2023-08-07T07:36:53;33.70;99.90
12504;DHT22;6316;48.118;-1.690;2023-08-07T07:39:20;34.20;99.90
12504;DHT22;6316;48.118;-1.690;2023-08-07T07:41:45;34.50;99.90
12504;DHT22;6316;48.118;-1.690;2023-08-07T07:44:11;34.40;99.90
12504;DHT22;6316;48.118;-1.690;2023-08-07T07:46:37;34.40;99.90
12504;DHT22;6316;48.118;-1.690;2023-08-07T07:49:02;34.50;99.90
12504;DHT22;6316;48.118;-1.690;2023-08-07T07:51:30;34.40;99.90
12504;DHT22;6316;48.118;-1.690;2023-08-07T07:53:57;34.50;99.90
12504;DHT22;6316;48.118;-1.690;2023-08-07T07:56:23;34.90;99.90
12504;DHT22;6316;48.118;-1.690;2023-08-07T07:58:48;35.00;99.90
12504;DHT22;6316;48.118;-1.690;2023-08-07T08:01:14;35.20;99.90
12504;DHT22;6316;48.118;-1.690;2023-08-07T08:03:40;35.30;99.90
12504;DHT22;6316;48.118;-1.690;2023-08-07T08:06:05;35.50;99.90
12504;DHT22;6316;48.118;-1.690;2023-08-07T08:08:31;35.80;99.90
12504;DHT22;6316;48.118;-1.690;2023-08-07T08:10:56;36.10;99.90
12504;DHT22;6316;48.118;-1.690;2023-08-07T08:13:22;36.20;99.90
12504;DHT22;6316;48.118;-1.690;2023-08-07T08:15:49;36.10;99.90
12504;DHT22;6316;48.118;-1.690;2023-08-07T08:18:14;36.10;99.90
12504;DHT22;6316;48.118;-1.690;2023-08-07T08:20:40;35.90;99.90
12504;DHT22;6316;48.118;-1.690;2023-08-07T08:23:06;35.60;99.90
12504;DHT22;6316;48.118;-1.690;2023-08-07T08:25:32;35.60;99.90
12504;DHT22;6316;48.118;-1.690;2023-08-07T08:28:00;35.20;99.90
12504;DHT22;6316;48.118;-1.690;2023-08-07T08:30:26;34.80;99.90
12504;DHT22;6316;48.118;-1.690;2023-08-07T08:32:52;34.60;99.90
12504;DHT22;6316;48.118;-1.690;2023-08-07T08:35:17;34.40;99.90
12504;DHT22;6316;48.118;-1.690;2023-08-07T08:37:43;33.80;99.90
12504;DHT22;6316;48.118;-1.690;2023-08-07T08:40:09;33.70;99.90
12504;DHT22;6316;48.118;-1.690;2023-08-07T08:42:39;33.40;99.90
12504;DHT22;6316;48.118;-1.690;2023-08-07T08:45:07;32.50;99.90
12504;DHT22;6316;48.118;-1.690;2023-08-07T08:47:36;31.50;99.90
12504;DHT22;6316;48.118;-1.690;2023-08-07T08:50:06;30.60;99.90
12504;DHT22;6316;48.118;-1.690;2023-08-07T08:52:32;29.60;99.90
12504;DHT22;6316;48.118;-1.690;2023-08-07T08:54:59;28.80;99.90
12504;DHT22;6316;48.118;-1.690;2023-08-07T08:57:25;28.60;99.90
12504;DHT22;6316;48.118;-1.690;2023-08-07T08:59:52;28.60;99.90
12504;DHT22;6316;48.118;-1.690;2023-08-07T09:02:18;28.30;99.90
12504;DHT22;6316;48.118;-1.690;2023-08-07T09:04:46;27.80;99.90
12504;DHT22;6316;48.118;-1.690;2023-08-07T09:07:16;27.60;99.90
12504;DHT22;6316;48.118;-1.690;2023-08-07T09:09:43;27.90;99.90
12504;DHT22;6316;48.118;-1.690;2023-08-07T09:12:19;28.30;99.90
12504;DHT22;6316;48.118;-1.690;2023-08-07T09:14:49;28.60;99.90
12504;DHT22;6316;48.118;-1.690;2023-08-07T09:17:15;28.90;99.90
12504;DHT22;6316;48.118;-1.690;2023-08-07T09:19:42;29.10;99.90
12504;DHT22;6316;48.118;-1.690;2023-08-07T09:22:07;29.10;99.90
12504;DHT22;6316;48.118;-1.690;2023-08-07T09:24:34;29.10;99.90
12504;DHT22;6316;48.118;-1.690;2023-08-07T09:27:00;28.90;99.90
12504;DHT22;6316;48.118;-1.690;2023-08-07T09:29:27;28.60;99.90
12504;DHT22;6316;48.118;-1.690;2023-08-07T09:31:54;28.40;99.90
12504;DHT22;6316;48.118;-1.690;2023-08-07T09:34:20;28.00;99.90
12504;DHT22;6316;48.118;-1.690;2023-08-07T09:36:46;27.60;99.90
12504;DHT22;6316;48.118;-1.690;2023-08-07T09:39:11;27.30;99.90
12504;DHT22;6316;48.118;-1.690;2023-08-07T09:41:37;27.00;99.90
12504;DHT22;6316;48.118;-1.690;2023-08-07T09:44:07;26.60;99.90
12504;DHT22;6316;48.118;-1.690;2023-08-07T09:46:43;26.20;99.90
12504;DHT22;6316;48.118;-1.690;2023-08-07T09:49:09;25.80;99.90
12504;DHT22;6316;48.118;-1.690;2023-08-07T09:51:42;25.50;99.90
12504;DHT22;6316;48.118;-1.690;2023-08-07T09:54:08;25.30;99.90
12504;DHT22;6316;48.118;-1.690;2023-08-07T09:56:35;25.00;99.90
12504;DHT22;6316;48.118;-1.690;2023-08-07T09:59:01;24.90;99.90
12504;DHT22;6316;48.118;-1.690;2023-08-07T10:01:26;24.80;99.90
12504;DHT22;6316;48.118;-1.690;2023-08-07T10:03:53;24.70;99.90
12504;DHT22;6316;48.118;-1.690;2023-08-07T10:06:19;24.70;99.90
12504;DHT22;6316;48.118;-1.690;2023-08-07T10:08:45;24.60;99.90
12504;DHT22;6316;48.118;-1.690;2023-08-07T10:11:11;24.50;99.90
12504;DHT22;6316;48.118;-1.690;2023-08-07T10:13:40;24.50;99.90
12504;DHT22;6316;48.118;-1.690;2023-08-07T10:16:07;24.60;99.90
12504;DHT22;6316;48.118;-1.690;2023-08-07T10:18:33;24.60;99.90
12504;DHT22;6316;48.118;-1.690;2023-08-07T10:21:01;24.70;99.90
12504;DHT22;6316;48.118;-1.690;2023-08-07T10:23:27;24.60;99.90
12504;DHT22;6316;48.118;-1.690;2023-08-07T10:25:53;24.50;99.90
12504;DHT22;6316;48.118;-1.690;2023-08-07T10:28:22;24.40;99.90
12504;DHT22;6316;48.118;-1.690;2023-08-07T10:30:49;24.20;99.90
12504;DHT22;6316;48.118;-1.690;2023-08-07T10:33:16;24.10;99.90
12504;DHT22;6316;48.118;-1.690;2023-08-07T10:35:46;24.00;99.90
12504;DHT22;6316;48.118;-1.690;2023-08-07T10:38:13;23.80;99.90
12504;DHT22;6316;48.118;-1.690;2023-08-07T10:41:00;23.70;99.90
12504;DHT22;6316;48.118;-1.690;2023-08-07T10:43:26;23.50;99.90
12504;DHT22;6316;48.118;-1.690;2023-08-07T10:45:54;23.40;99.90
12504;DHT22;6316;48.118;-1.690;2023-08-07T10:48:20;23.30;99.90
12504;DHT22;6316;48.118;-1.690;2023-08-07T10:53:32;23.20;99.90
12504;DHT22;6316;48.118;-1.690;2023-08-07T10:56:02;23.30;99.90
12504;DHT22;6316;48.118;-1.690;2023-08-07T11:03:55;23.50;99.90
12504;DHT22;6316;48.118;-1.690;2023-08-07T11:06:23;23.50;99.90
12504;DHT22;6316;48.118;-1.690;2023-08-07T11:08:50;23.50;99.90
12504;DHT22;6316;48.118;-1.690;2023-08-07T11:11:16;23.40;99.90
12504;DHT22;6316;48.118;-1.690;2023-08-07T11:13:42;23.50;99.90
12504;DHT22;6316;48.118;-1.690;2023-08-07T11:16:08;23.50;99.90
12504;DHT22;6316;48.118;-1.690;2023-08-07T11:18:34;23.50;99.90
12504;DHT22;6316;48.118;-1.690;2023-08-07T11:21:01;23.50;99.90
12504;DHT22;6316;48.118;-1.690;2023-08-07T11:23:27;23.50;99.90
12504;DHT22;6316;48.118;-1.690;2023-08-07T11:25:54;23.40;99.90
12504;DHT22;6316;48.118;-1.690;2023-08-07T11:28:23;23.30;99.90
12504;DHT22;6316;48.118;-1.690;2023-08-07T11:30:51;23.30;99.90
12504;DHT22;6316;48.118;-1.690;2023-08-07T11:33:20;23.40;99.90
12504;DHT22;6316;48.118;-1.690;2023-08-07T11:35:47;23.50;99.90
12504;DHT22;6316;48.118;-1.690;2023-08-07T11:38:15;23.60;99.90
12504;DHT22;6316;48.118;-1.690;2023-08-07T11:40:53;23.70;99.90
12504;DHT22;6316;48.118;-1.690;2023-08-07T11:43:19;23.80;99.90
12504;DHT22;6316;48.118;-1.690;2023-08-07T11:45:44;23.80;99.90
12504;DHT22;6316;48.118;-1.690;2023-08-07T11:48:10;23.90;99.90
12504;DHT22;6316;48.118;-1.690;2023-08-07T11:50:36;23.90;99.90
12504;DHT22;6316;48.118;-1.690;2023-08-07T11:53:03;24.00;99.90
12504;DHT22;6316;48.118;-1.690;2023-08-07T11:55:29;24.10;99.90
12504;DHT22;6316;48.118;-1.690;2023-08-07T11:57:55;24.20;99.90
12504;DHT22;6316;48.118;-1.690;2023-08-07T12:00:24;24.30;99.90
12504;DHT22;6316;48.118;-1.690;2023-08-07T12:02:52;24.40;99.90
12504;DHT22;6316;48.118;-1.690;2023-08-07T12:05:17;24.40;99.90
12504;DHT22;6316;48.118;-1.690;2023-08-07T12:07:43;24.30;99.90
12504;DHT22;6316;48.118;-1.690;2023-08-07T12:10:11;24.30;99.90
12504;DHT22;6316;48.118;-1.690;2023-08-07T12:12:37;24.30;99.90
12504;DHT22;6316;48.118;-1.690;2023-08-07T12:15:10;24.40;99.90
12504;DHT22;6316;48.118;-1.690;2023-08-07T12:17:36;24.40;99.90
12504;DHT22;6316;48.118;-1.690;2023-08-07T12:20:04;24.50;99.90
12504;DHT22;6316;48.118;-1.690;2023-08-07T12:22:32;24.60;99.90
12504;DHT22;6316;48.118;-1.690;2023-08-07T12:24:57;24.70;99.90
12504;DHT22;6316;48.118;-1.690;2023-08-07T12:27:23;24.80;99.90
12504;DHT22;6316;48.118;-1.690;2023-08-07T12:29:49;24.90;99.90
12504;DHT22;6316;48.118;-1.690;2023-08-07T12:32:15;25.00;99.90
12504;DHT22;6316;48.118;-1.690;2023-08-07T12:34:40;25.10;99.90
12504;DHT22;6316;48.118;-1.690;2023-08-07T12:37:06;25.20;99.90
12504;DHT22;6316;48.118;-1.690;2023-08-07T12:39:32;25.20;99.90
12504;DHT22;6316;48.118;-1.690;2023-08-07T12:41:57;25.20;99.90
12504;DHT22;6316;48.118;-1.690;2023-08-07T12:44:23;25.20;99.90
12504;DHT22;6316;48.118;-1.690;2023-08-07T12:46:49;25.10;99.90
12504;DHT22;6316;48.118;-1.690;2023-08-07T12:49:15;25.00;99.90
12504;DHT22;6316;48.118;-1.690;2023-08-07T12:51:44;25.00;99.90
12504;DHT22;6316;48.118;-1.690;2023-08-07T12:54:10;25.00;99.90
12504;DHT22;6316;48.118;-1.690;2023-08-07T12:56:35;25.00;99.90
12504;DHT22;6316;48.118;-1.690;2023-08-07T12:59:01;25.00;99.90
12504;DHT22;6316;48.118;-1.690;2023-08-07T13:01:28;25.10;99.90
12504;DHT22;6316;48.118;-1.690;2023-08-07T13:03:53;25.20;99.90
12504;DHT22;6316;48.118;-1.690;2023-08-07T13:06:20;25.20;99.90
12504;DHT22;6316;48.118;-1.690;2023-08-07T13:08:46;25.30;99.90
12504;DHT22;6316;48.118;-1.690;2023-08-07T13:11:12;25.20;99.90
12504;DHT22;6316;48.118;-1.690;2023-08-07T13:13:37;25.20;99.90
12504;DHT22;6316;48.118;-1.690;2023-08-07T13:16:04;25.20;99.90
12504;DHT22;6316;48.118;-1.690;2023-08-07T13:18:29;25.30;99.90
12504;DHT22;6316;48.118;-1.690;2023-08-07T13:20:55;25.30;99.90
12504;DHT22;6316;48.118;-1.690;2023-08-07T13:23:22;25.40;99.90
12504;DHT22;6316;48.118;-1.690;2023-08-07T13:25:48;25.30;99.90
12504;DHT22;6316;48.118;-1.690;2023-08-07T13:28:13;25.30;99.90
12504;DHT22;6316;48.118;-1.690;2023-08-07T13:30:39;25.30;99.90
12504;DHT22;6316;48.118;-1.690;2023-08-07T13:33:05;25.30;99.90
12504;DHT22;6316;48.118;-1.690;2023-08-07T13:35:30;25.20;99.90
12504;DHT22;6316;48.118;-1.690;2023-08-07T13:37:58;25.20;99.90
12504;DHT22;6316;48.118;-1.690;2023-08-07T13:40:23;25.20;99.90
12504;DHT22;6316;48.118;-1.690;2023-08-07T13:42:49;25.20;99.90
12504;DHT22;6316;48.118;-1.690;2023-08-07T13:45:15;25.20;99.90
12504;DHT22;6316;48.118;-1.690;2023-08-07T13:47:40;25.20;99.90
12504;DHT22;6316;48.118;-1.690;2023-08-07T13:50:07;25.20;99.90
12504;DHT22;6316;48.118;-1.690;2023-08-07T13:52:35;25.20;99.90
12504;DHT22;6316;48.118;-1.690;2023-08-07T13:55:01;25.20;99.90
12504;DHT22;6316;48.118;-1.690;2023-08-07T13:57:26;25.20;99.90
12504;DHT22;6316;48.118;-1.690;2023-08-07T13:59:52;25.20;99.90
12504;DHT22;6316;48.118;-1.690;2023-08-07T14:02:19;25.30;99.90
12504;DHT22;6316;48.118;-1.690;2023-08-07T14:04:45;25.40;99.90
12504;DHT22;6316;48.118;-1.690;2023-08-07T14:07:11;25.40;99.90
12504;DHT22;6316;48.118;-1.690;2023-08-07T14:09:37;25.40;99.90
12504;DHT22;6316;48.118;-1.690;2023-08-07T14:12:03;25.40;99.90
12504;DHT22;6316;48.118;-1.690;2023-08-07T14:14:29;25.40;99.90
12504;DHT22;6316;48.118;-1.690;2023-08-07T14:16:55;25.40;99.90
12504;DHT22;6316;48.118;-1.690;2023-08-07T14:19:23;25.50;99.90
12504;DHT22;6316;48.118;-1.690;2023-08-07T14:21:49;25.50;99.90
12504;DHT22;6316;48.118;-1.690;2023-08-07T14:24:15;25.50;99.90
12504;DHT22;6316;48.118;-1.690;2023-08-07T14:26:42;25.50;99.90
12504;DHT22;6316;48.118;-1.690;2023-08-07T14:29:08;25.50;99.90
12504;DHT22;6316;48.118;-1.690;2023-08-07T14:31:34;25.50;99.90
12504;DHT22;6316;48.118;-1.690;2023-08-07T14:33:59;25.50;99.90
12504;DHT22;6316;48.118;-1.690;2023-08-07T14:36:25;25.50;99.90
12504;DHT22;6316;48.118;-1.690;2023-08-07T14:38:51;25.50;99.90
12504;DHT22;6316;48.118;-1.690;2023-08-07T14:41:17;25.40;99.90
12504;DHT22;6316;48.118;-1.690;2023-08-07T14:43:44;25.60;99.90
12504;DHT22;6316;48.118;-1.690;2023-08-07T14:46:10;25.60;99.90
12504;DHT22;6316;48.118;-1.690;2023-08-07T14:48:36;25.70;99.90
12504;DHT22;6316;48.118;-1.690;2023-08-07T14:51:02;25.80;99.90
12504;DHT22;6316;48.118;-1.690;2023-08-07T14:53:27;25.80;99.90
12504;DHT22;6316;48.118;-1.690;2023-08-07T14:55:53;25.80;99.90
12504;DHT22;6316;48.118;-1.690;2023-08-07T14:58:19;25.80;99.90
12504;DHT22;6316;48.118;-1.690;2023-08-07T15:00:45;25.70;99.90
12504;DHT22;6316;48.118;-1.690;2023-08-07T15:03:11;25.60;99.90
12504;DHT22;6316;48.118;-1.690;2023-08-07T15:05:36;25.60;99.90
12504;DHT22;6316;48.118;-1.690;2023-08-07T15:08:02;25.50;99.90
12504;DHT22;6316;48.118;-1.690;2023-08-07T15:10:29;25.40;99.90
12504;DHT22;6316;48.118;-1.690;2023-08-07T15:12:55;25.40;99.90
12504;DHT22;6316;48.118;-1.690;2023-08-07T15:15:21;25.40;99.90
12504;DHT22;6316;48.118;-1.690;2023-08-07T15:17:48;25.40;99.90
12504;DHT22;6316;48.118;-1.690;2023-08-07T15:20:14;25.40;99.90
12504;DHT22;6316;48.118;-1.690;2023-08-07T15:22:40;25.40;99.90
12504;DHT22;6316;48.118;-1.690;2023-08-07T15:25:06;25.40;99.90
12504;DHT22;6316;48.118;-1.690;2023-08-07T15:27:32;25.50;99.90
12504;DHT22;6316;48.118;-1.690;2023-08-07T15:29:57;25.50;99.90
12504;DHT22;6316;48.118;-1.690;2023-08-07T15:32:23;25.60;99.90
12504;DHT22;6316;48.118;-1.690;2023-08-07T15:34:49;25.60;99.90
12504;DHT22;6316;48.118;-1.690;2023-08-07T15:37:15;25.70;99.90